sensor_id;sensor_type;location;lat;lon;timestamp;P1;durP1;ratioP1;P2;durP2;ratioP2
10761;SDS011;5433;50.862;4.320;2023-06-26T00:00:43;7.28;;;4.80;;
10761;SDS011;5433;50.862;4.320;2023-06-26T00:03:08;5.72;;;4.30;;
10761;SDS011;5433;50.862;4.320;2023-06-26T00:05:39;5.60;;;4.40;;
10761;SDS011;5433;50.862;4.320;2023-06-26T00:08:04;4.90;;;4.40;;
10761;SDS011;5433;50.862;4.320;2023-06-26T00:10:31;4.53;;;4.13;;
10761;SDS011;5433;50.862;4.320;2023-06-26T00:12:57;5.53;;;4.35;;
10761;SDS011;5433;50.862;4.320;2023-06-26T00:15:23;6.03;;;4.20;;
10761;SDS011;5433;50.862;4.320;2023-06-26T00:17:49;4.00;;;3.70;;
10761;SDS011;5433;50.862;4.320;2023-06-26T00:20:15;4.25;;;3.83;;
10761;SDS011;5433;50.862;4.320;2023-06-26T00:22:43;4.88;;;3.58;;
10761;SDS011;5433;50.862;4.320;2023-06-26T00:25:10;3.80;;;3.30;;
10761;SDS011;5433;50.862;4.320;2023-06-26T00:27:36;3.97;;;3.08;;
10761;SDS011;5433;50.862;4.320;2023-06-26T00:30:02;6.97;;;3.60;;
10761;SDS011;5433;50.862;4.320;2023-06-26T00:32:28;4.07;;;3.20;;
10761;SDS011;5433;50.862;4.320;2023-06-26T00:34:54;3.78;;;3.22;;
10761;SDS011;5433;50.862;4.320;2023-06-26T00:37:20;5.18;;;3.55;;
10761;SDS011;5433;50.862;4.320;2023-06-26T00:39:47;5.93;;;3.60;;
10761;SDS011;5433;50.862;4.320;2023-06-26T00:42:13;5.60;;;3.33;;
10761;SDS011;5433;50.862;4.320;2023-06-26T00:44:39;5.43;;;3.78;;
10761;SDS011;5433;50.862;4.320;2023-06-26T00:47:05;6.07;;;3.53;;
10761;SDS011;5433;50.862;4.320;2023-06-26T00:49:31;5.05;;;3.30;;
10761;SDS011;5433;50.862;4.320;2023-06-26T00:51:57;4.40;;;3.47;;
10761;SDS011;5433;50.862;4.320;2023-06-26T00:54:24;4.60;;;3.50;;
10761;SDS011;5433;50.862;4.320;2023-06-26T00:56:50;4.07;;;3.67;;
10761;SDS011;5433;50.862;4.320;2023-06-26T00:59:16;4.28;;;3.58;;
10761;SDS011;5433;50.862;4.320;2023-06-26T01:01:42;4.60;;;3.40;;
10761;SDS011;5433;50.862;4.320;2023-06-26T01:04:08;5.03;;;3.20;;
10761;SDS011;5433;50.862;4.320;2023-06-26T01:06:42;4.35;;;3.40;;
10761;SDS011;5433;50.862;4.320;2023-06-26T01:09:13;4.78;;;3.38;;
10761;SDS011;5433;50.862;4.320;2023-06-26T01:11:39;6.13;;;3.25;;
10761;SDS011;5433;50.862;4.320;2023-06-26T01:14:05;5.35;;;3.80;;
10761;SDS011;5433;50.862;4.320;2023-06-26T01:16:31;5.00;;;3.28;;
10761;SDS011;5433;50.862;4.320;2023-06-26T01:18:57;4.07;;;3.28;;
10761;SDS011;5433;50.862;4.320;2023-06-26T01:21:24;4.03;;;2.92;;
10761;SDS011;5433;50.862;4.320;2023-06-26T01:26:24;3.38;;;3.00;;
10761;SDS011;5433;50.862;4.320;2023-06-26T01:28:51;5.22;;;3.38;;
10761;SDS011;5433;50.862;4.320;2023-06-26T01:31:18;5.03;;;3.00;;
10761;SDS011;5433;50.862;4.320;2023-06-26T01:33:44;5.10;;;3.45;;
10761;SDS011;5433;50.862;4.320;2023-06-26T01:36:11;3.42;;;2.90;;
10761;SDS011;5433;50.862;4.320;2023-06-26T01:38:37;5.88;;;3.35;;
10761;SDS011;5433;50.862;4.320;2023-06-26T01:41:03;3.97;;;3.20;;
10761;SDS011;5433;50.862;4.320;2023-06-26T01:45:59;4.80;;;3.22;;
10761;SDS011;5433;50.862;4.320;2023-06-26T01:48:29;3.72;;;2.83;;
10761;SDS011;5433;50.862;4.320;2023-06-26T01:50:56;4.75;;;3.30;;
10761;SDS011;5433;50.862;4.320;2023-06-26T01:53:24;4.45;;;3.42;;
10761;SDS011;5433;50.862;4.320;2023-06-26T01:55:53;5.30;;;3.20;;
10761;SDS011;5433;50.862;4.320;2023-06-26T01:58:20;4.65;;;3.08;;
10761;SDS011;5433;50.862;4.320;2023-06-26T02:00:47;6.63;;;3.72;;
10761;SDS011;5433;50.862;4.320;2023-06-26T02:03:13;5.30;;;3.35;;
10761;SDS011;5433;50.862;4.320;2023-06-26T02:05:39;6.25;;;3.30;;
10761;SDS011;5433;50.862;4.320;2023-06-26T02:08:06;6.50;;;3.50;;
10761;SDS011;5433;50.862;4.320;2023-06-26T02:10:32;5.35;;;3.40;;
10761;SDS011;5433;50.862;4.320;2023-06-26T02:12:59;6.05;;;3.47;;
10761;SDS011;5433;50.862;4.320;2023-06-26T02:15:25;4.95;;;3.60;;
10761;SDS011;5433;50.862;4.320;2023-06-26T02:17:51;5.63;;;3.22;;
10761;SDS011;5433;50.862;4.320;2023-06-26T02:20:17;6.07;;;3.40;;
10761;SDS011;5433;50.862;4.320;2023-06-26T02:22:43;5.63;;;3.55;;
10761;SDS011;5433;50.862;4.320;2023-06-26T02:25:09;5.10;;;3.30;;
10761;SDS011;5433;50.862;4.320;2023-06-26T02:27:37;5.50;;;3.40;;
10761;SDS011;5433;50.862;4.320;2023-06-26T02:30:03;6.95;;;3.47;;
10761;SDS011;5433;50.862;4.320;2023-06-26T02:32:29;4.70;;;3.20;;
10761;SDS011;5433;50.862;4.320;2023-06-26T02:34:55;7.18;;;3.53;;
10761;SDS011;5433;50.862;4.320;2023-06-26T02:37:21;4.53;;;3.30;;
10761;SDS011;5433;50.862;4.320;2023-06-26T02:39:47;6.25;;;3.83;;
10761;SDS011;5433;50.862;4.320;2023-06-26T02:42:13;6.47;;;4.00;;
10761;SDS011;5433;50.862;4.320;2023-06-26T02:44:39;5.50;;;3.50;;
10761;SDS011;5433;50.862;4.320;2023-06-26T02:47:06;7.28;;;3.78;;
10761;SDS011;5433;50.862;4.320;2023-06-26T02:49:32;4.85;;;3.38;;
10761;SDS011;5433;50.862;4.320;2023-06-26T02:51:58;8.85;;;3.78;;
10761;SDS011;5433;50.862;4.320;2023-06-26T02:54:24;7.07;;;4.05;;
10761;SDS011;5433;50.862;4.320;2023-06-26T02:56:50;8.85;;;3.90;;
10761;SDS011;5433;50.862;4.320;2023-06-26T02:59:16;7.00;;;3.83;;
10761;SDS011;5433;50.862;4.320;2023-06-26T03:01:42;4.97;;;3.85;;
10761;SDS011;5433;50.862;4.320;2023-06-26T03:04:08;7.75;;;3.88;;
10761;SDS011;5433;50.862;4.320;2023-06-26T03:06:35;7.40;;;3.90;;
10761;SDS011;5433;50.862;4.320;2023-06-26T03:09:01;6.35;;;4.00;;
10761;SDS011;5433;50.862;4.320;2023-06-26T03:11:28;11.32;;;4.35;;
10761;SDS011;5433;50.862;4.320;2023-06-26T03:13:54;10.00;;;4.22;;
10761;SDS011;5433;50.862;4.320;2023-06-26T03:16:20;8.68;;;4.10;;
10761;SDS011;5433;50.862;4.320;2023-06-26T03:21:49;9.73;;;4.55;;
10761;SDS011;5433;50.862;4.320;2023-06-26T03:24:15;10.65;;;4.40;;
10761;SDS011;5433;50.862;4.320;2023-06-26T03:26:41;9.88;;;3.80;;
10761;SDS011;5433;50.862;4.320;2023-06-26T03:29:08;8.18;;;4.05;;
10761;SDS011;5433;50.862;4.320;2023-06-26T03:31:34;6.95;;;4.03;;
10761;SDS011;5433;50.862;4.320;2023-06-26T03:34:00;9.10;;;4.05;;
10761;SDS011;5433;50.862;4.320;2023-06-26T03:36:26;7.72;;;4.18;;
10761;SDS011;5433;50.862;4.320;2023-06-26T03:38:52;8.13;;;4.18;;
10761;SDS011;5433;50.862;4.320;2023-06-26T03:41:21;9.77;;;4.25;;
10761;SDS011;5433;50.862;4.320;2023-06-26T03:43:47;10.70;;;4.50;;
10761;SDS011;5433;50.862;4.320;2023-06-26T03:46:13;9.40;;;4.20;;
10761;SDS011;5433;50.862;4.320;2023-06-26T03:48:39;8.52;;;4.20;;
10761;SDS011;5433;50.862;4.320;2023-06-26T03:51:06;10.68;;;4.63;;
10761;SDS011;5433;50.862;4.320;2023-06-26T03:53:32;10.00;;;4.40;;
10761;SDS011;5433;50.862;4.320;2023-06-26T03:55:58;9.38;;;4.15;;
10761;SDS011;5433;50.862;4.320;2023-06-26T04:01:28;10.55;;;4.55;;
10761;SDS011;5433;50.862;4.320;2023-06-26T04:03:54;13.32;;;4.47;;
10761;SDS011;5433;50.862;4.320;2023-06-26T04:06:20;9.13;;;4.43;;
10761;SDS011;5433;50.862;4.320;2023-06-26T04:08:46;11.63;;;4.70;;
10761;SDS011;5433;50.862;4.320;2023-06-26T04:11:13;16.38;;;4.95;;
10761;SDS011;5433;50.862;4.320;2023-06-26T04:13:39;12.23;;;4.25;;
10761;SDS011;5433;50.862;4.320;2023-06-26T04:16:05;10.00;;;4.40;;
10761;SDS011;5433;50.862;4.320;2023-06-26T04:18:31;9.52;;;4.10;;
10761;SDS011;5433;50.862;4.320;2023-06-26T04:21:07;9.85;;;4.43;;
10761;SDS011;5433;50.862;4.320;2023-06-26T04:26:37;10.98;;;4.50;;
10761;SDS011;5433;50.862;4.320;2023-06-26T04:29:06;12.02;;;4.15;;
10761;SDS011;5433;50.862;4.320;2023-06-26T04:31:31;13.32;;;3.80;;
10761;SDS011;5433;50.862;4.320;2023-06-26T04:33:58;10.07;;;4.18;;
10761;SDS011;5433;50.862;4.320;2023-06-26T04:36:24;8.93;;;3.80;;
10761;SDS011;5433;50.862;4.320;2023-06-26T04:38:54;9.70;;;3.80;;
10761;SDS011;5433;50.862;4.320;2023-06-26T04:41:20;11.00;;;3.95;;
10761;SDS011;5433;50.862;4.320;2023-06-26T04:43:46;9.88;;;3.53;;
10761;SDS011;5433;50.862;4.320;2023-06-26T04:46:12;12.02;;;4.18;;
10761;SDS011;5433;50.862;4.320;2023-06-26T04:48:38;10.50;;;3.78;;
10761;SDS011;5433;50.862;4.320;2023-06-26T04:51:04;10.43;;;3.78;;
10761;SDS011;5433;50.862;4.320;2023-06-26T04:53:30;11.73;;;3.80;;
10761;SDS011;5433;50.862;4.320;2023-06-26T04:55:57;11.07;;;3.63;;
10761;SDS011;5433;50.862;4.320;2023-06-26T04:58:23;8.20;;;3.20;;
10761;SDS011;5433;50.862;4.320;2023-06-26T05:00:49;9.02;;;3.58;;
10761;SDS011;5433;50.862;4.320;2023-06-26T05:03:16;9.20;;;3.53;;
10761;SDS011;5433;50.862;4.320;2023-06-26T05:05:43;10.27;;;3.30;;
10761;SDS011;5433;50.862;4.320;2023-06-26T05:08:20;11.20;;;3.72;;
10761;SDS011;5433;50.862;4.320;2023-06-26T05:10:46;10.48;;;3.55;;
10761;SDS011;5433;50.862;4.320;2023-06-26T05:13:12;11.85;;;3.50;;
10761;SDS011;5433;50.862;4.320;2023-06-26T05:15:44;10.48;;;3.47;;
10761;SDS011;5433;50.862;4.320;2023-06-26T05:18:10;8.60;;;3.22;;
10761;SDS011;5433;50.862;4.320;2023-06-26T05:20:36;7.95;;;3.30;;
10761;SDS011;5433;50.862;4.320;2023-06-26T05:23:02;9.82;;;3.50;;
10761;SDS011;5433;50.862;4.320;2023-06-26T05:25:32;7.88;;;3.10;;
10761;SDS011;5433;50.862;4.320;2023-06-26T05:28:01;10.35;;;3.28;;
10761;SDS011;5433;50.862;4.320;2023-06-26T05:30:27;8.10;;;2.95;;
10761;SDS011;5433;50.862;4.320;2023-06-26T05:32:53;11.00;;;3.55;;
10761;SDS011;5433;50.862;4.320;2023-06-26T05:35:20;10.30;;;3.47;;
10761;SDS011;5433;50.862;4.320;2023-06-26T05:37:49;10.25;;;3.13;;
10761;SDS011;5433;50.862;4.320;2023-06-26T05:40:16;6.90;;;3.00;;
10761;SDS011;5433;50.862;4.320;2023-06-26T05:42:42;7.53;;;3.10;;
10761;SDS011;5433;50.862;4.320;2023-06-26T05:45:09;9.52;;;3.20;;
10761;SDS011;5433;50.862;4.320;2023-06-26T05:47:35;10.77;;;2.97;;
10761;SDS011;5433;50.862;4.320;2023-06-26T05:50:01;10.23;;;3.10;;
10761;SDS011;5433;50.862;4.320;2023-06-26T05:52:28;7.03;;;3.10;;
10761;SDS011;5433;50.862;4.320;2023-06-26T05:54:55;11.48;;;3.20;;
10761;SDS011;5433;50.862;4.320;2023-06-26T05:57:23;9.00;;;2.72;;
10761;SDS011;5433;50.862;4.320;2023-06-26T05:59:50;6.80;;;2.47;;
10761;SDS011;5433;50.862;4.320;2023-06-26T06:02:16;8.35;;;2.80;;
10761;SDS011;5433;50.862;4.320;2023-06-26T06:04:42;9.88;;;2.92;;
10761;SDS011;5433;50.862;4.320;2023-06-26T06:07:08;7.55;;;2.40;;
10761;SDS011;5433;50.862;4.320;2023-06-26T06:09:34;5.63;;;2.47;;
10761;SDS011;5433;50.862;4.320;2023-06-26T06:12:01;10.25;;;2.85;;
10761;SDS011;5433;50.862;4.320;2023-06-26T06:14:28;9.80;;;2.63;;
10761;SDS011;5433;50.862;4.320;2023-06-26T06:16:54;6.35;;;2.55;;
10761;SDS011;5433;50.862;4.320;2023-06-26T06:19:21;6.65;;;2.53;;
10761;SDS011;5433;50.862;4.320;2023-06-26T06:21:47;7.32;;;2.35;;
10761;SDS011;5433;50.862;4.320;2023-06-26T06:24:12;5.25;;;2.30;;
10761;SDS011;5433;50.862;4.320;2023-06-26T06:26:39;8.02;;;2.42;;
10761;SDS011;5433;50.862;4.320;2023-06-26T06:29:05;4.22;;;2.30;;
10761;SDS011;5433;50.862;4.320;2023-06-26T06:31:31;6.40;;;2.35;;
10761;SDS011;5433;50.862;4.320;2023-06-26T06:33:57;6.93;;;2.13;;
10761;SDS011;5433;50.862;4.320;2023-06-26T06:36:23;6.45;;;2.30;;
10761;SDS011;5433;50.862;4.320;2023-06-26T06:38:49;7.43;;;2.38;;
10761;SDS011;5433;50.862;4.320;2023-06-26T06:41:15;6.93;;;2.20;;
10761;SDS011;5433;50.862;4.320;2023-06-26T06:43:41;6.22;;;2.15;;
10761;SDS011;5433;50.862;4.320;2023-06-26T06:46:07;6.82;;;2.30;;
10761;SDS011;5433;50.862;4.320;2023-06-26T06:48:33;7.55;;;2.25;;
10761;SDS011;5433;50.862;4.320;2023-06-26T06:50:59;4.80;;;2.10;;
10761;SDS011;5433;50.862;4.320;2023-06-26T06:53:26;8.27;;;2.05;;
10761;SDS011;5433;50.862;4.320;2023-06-26T06:55:52;6.03;;;1.98;;
10761;SDS011;5433;50.862;4.320;2023-06-26T06:58:18;5.50;;;1.95;;
10761;SDS011;5433;50.862;4.320;2023-06-26T07:00:47;6.57;;;1.92;;
10761;SDS011;5433;50.862;4.320;2023-06-26T07:03:13;5.78;;;2.15;;
10761;SDS011;5433;50.862;4.320;2023-06-26T07:05:42;8.48;;;2.25;;
10761;SDS011;5433;50.862;4.320;2023-06-26T07:08:12;7.25;;;2.22;;
10761;SDS011;5433;50.862;4.320;2023-06-26T07:10:38;5.68;;;2.25;;
10761;SDS011;5433;50.862;4.320;2023-06-26T07:13:04;4.50;;;2.08;;
10761;SDS011;5433;50.862;4.320;2023-06-26T07:15:30;4.93;;;2.00;;
10761;SDS011;5433;50.862;4.320;2023-06-26T07:17:56;4.90;;;2.10;;
10761;SDS011;5433;50.862;4.320;2023-06-26T07:20:22;6.78;;;1.75;;
10761;SDS011;5433;50.862;4.320;2023-06-26T07:22:48;5.28;;;2.00;;
10761;SDS011;5433;50.862;4.320;2023-06-26T07:25:14;5.97;;;1.90;;
10761;SDS011;5433;50.862;4.320;2023-06-26T07:27:41;4.45;;;1.80;;
10761;SDS011;5433;50.862;4.320;2023-06-26T07:30:07;5.38;;;1.70;;
10761;SDS011;5433;50.862;4.320;2023-06-26T07:32:34;5.60;;;1.83;;
10761;SDS011;5433;50.862;4.320;2023-06-26T07:35:00;4.80;;;1.90;;
10761;SDS011;5433;50.862;4.320;2023-06-26T07:37:26;3.33;;;1.80;;
10761;SDS011;5433;50.862;4.320;2023-06-26T07:39:52;4.78;;;1.63;;
10761;SDS011;5433;50.862;4.320;2023-06-26T07:42:18;3.78;;;1.80;;
10761;SDS011;5433;50.862;4.320;2023-06-26T07:44:44;4.80;;;1.85;;
10761;SDS011;5433;50.862;4.320;2023-06-26T07:47:10;5.72;;;2.00;;
10761;SDS011;5433;50.862;4.320;2023-06-26T07:49:36;6.20;;;1.90;;
10761;SDS011;5433;50.862;4.320;2023-06-26T07:52:04;6.30;;;1.95;;
10761;SDS011;5433;50.862;4.320;2023-06-26T07:54:30;4.03;;;1.50;;
10761;SDS011;5433;50.862;4.320;2023-06-26T07:56:57;6.30;;;2.00;;
10761;SDS011;5433;50.862;4.320;2023-06-26T07:59:24;5.10;;;1.90;;
10761;SDS011;5433;50.862;4.320;2023-06-26T08:01:50;6.18;;;1.75;;
10761;SDS011;5433;50.862;4.320;2023-06-26T08:04:20;6.15;;;1.80;;
10761;SDS011;5433;50.862;4.320;2023-06-26T08:06:50;4.35;;;1.90;;
10761;SDS011;5433;50.862;4.320;2023-06-26T08:09:16;7.00;;;1.63;;
10761;SDS011;5433;50.862;4.320;2023-06-26T08:11:43;7.10;;;1.75;;
10761;SDS011;5433;50.862;4.320;2023-06-26T08:14:08;6.10;;;1.90;;
10761;SDS011;5433;50.862;4.320;2023-06-26T08:16:34;4.43;;;2.08;;
10761;SDS011;5433;50.862;4.320;2023-06-26T08:19:01;5.63;;;1.70;;
10761;SDS011;5433;50.862;4.320;2023-06-26T08:21:27;4.28;;;1.98;;
10761;SDS011;5433;50.862;4.320;2023-06-26T08:23:53;3.97;;;1.70;;
10761;SDS011;5433;50.862;4.320;2023-06-26T08:26:19;3.17;;;1.77;;
10761;SDS011;5433;50.862;4.320;2023-06-26T08:28:45;4.28;;;1.75;;
10761;SDS011;5433;50.862;4.320;2023-06-26T08:31:11;4.32;;;1.80;;
10761;SDS011;5433;50.862;4.320;2023-06-26T08:33:37;4.35;;;1.60;;
10761;SDS011;5433;50.862;4.320;2023-06-26T08:36:03;8.90;;;1.92;;
10761;SDS011;5433;50.862;4.320;2023-06-26T08:38:29;6.30;;;1.90;;
10761;SDS011;5433;50.862;4.320;2023-06-26T08:40:55;4.13;;;1.58;;
10761;SDS011;5433;50.862;4.320;2023-06-26T08:43:22;3.40;;;1.60;;
10761;SDS011;5433;50.862;4.320;2023-06-26T08:45:48;5.30;;;1.70;;
10761;SDS011;5433;50.862;4.320;2023-06-26T08:48:16;2.15;;;1.42;;
10761;SDS011;5433;50.862;4.320;2023-06-26T08:50:43;4.70;;;1.95;;
10761;SDS011;5433;50.862;4.320;2023-06-26T08:53:29;4.38;;;2.20;;
10761;SDS011;5433;50.862;4.320;2023-06-26T08:55:56;6.30;;;1.77;;
10761;SDS011;5433;50.862;4.320;2023-06-26T08:58:23;3.63;;;1.58;;
10761;SDS011;5433;50.862;4.320;2023-06-26T09:00:50;3.15;;;1.50;;
10761;SDS011;5433;50.862;4.320;2023-06-26T09:03:18;3.95;;;1.63;;
10761;SDS011;5433;50.862;4.320;2023-06-26T09:05:44;4.45;;;1.90;;
10761;SDS011;5433;50.862;4.320;2023-06-26T09:08:10;3.53;;;1.65;;
10761;SDS011;5433;50.862;4.320;2023-06-26T09:10:38;4.90;;;1.50;;
10761;SDS011;5433;50.862;4.320;2023-06-26T09:13:04;3.38;;;1.63;;
10761;SDS011;5433;50.862;4.320;2023-06-26T09:16:04;4.55;;;1.70;;
10761;SDS011;5433;50.862;4.320;2023-06-26T09:18:23;5.40;;;1.80;;
10761;SDS011;5433;50.862;4.320;2023-06-26T09:20:49;3.15;;;1.52;;
10761;SDS011;5433;50.862;4.320;2023-06-26T09:23:16;5.05;;;1.80;;
10761;SDS011;5433;50.862;4.320;2023-06-26T09:25:42;3.10;;;1.60;;
10761;SDS011;5433;50.862;4.320;2023-06-26T09:28:09;4.32;;;1.58;;
10761;SDS011;5433;50.862;4.320;2023-06-26T09:30:35;4.22;;;1.80;;
10761;SDS011;5433;50.862;4.320;2023-06-26T09:33:18;4.55;;;1.70;;
10761;SDS011;5433;50.862;4.320;2023-06-26T09:35:44;5.00;;;1.77;;
10761;SDS011;5433;50.862;4.320;2023-06-26T09:38:11;5.18;;;1.80;;
10761;SDS011;5433;50.862;4.320;2023-06-26T09:40:40;5.35;;;1.60;;
10761;SDS011;5433;50.862;4.320;2023-06-26T09:43:07;5.50;;;1.70;;
10761;SDS011;5433;50.862;4.320;2023-06-26T09:45:33;7.13;;;1.85;;
10761;SDS011;5433;50.862;4.320;2023-06-26T09:48:01;3.15;;;1.67;;
10761;SDS011;5433;50.862;4.320;2023-06-26T09:50:33;4.47;;;1.40;;
10761;SDS011;5433;50.862;4.320;2023-06-26T09:53:12;3.97;;;1.40;;
10761;SDS011;5433;50.862;4.320;2023-06-26T09:55:39;3.80;;;1.67;;
10761;SDS011;5433;50.862;4.320;2023-06-26T09:58:10;3.30;;;1.55;;
10761;SDS011;5433;50.862;4.320;2023-06-26T10:00:40;3.95;;;1.65;;
10761;SDS011;5433;50.862;4.320;2023-06-26T10:03:06;4.22;;;1.63;;
10761;SDS011;5433;50.862;4.320;2023-06-26T10:05:33;4.32;;;1.48;;
10761;SDS011;5433;50.862;4.320;2023-06-26T10:08:00;3.47;;;1.40;;
10761;SDS011;5433;50.862;4.320;2023-06-26T10:10:26;3.80;;;1.80;;
10761;SDS011;5433;50.862;4.320;2023-06-26T10:12:54;3.22;;;1.63;;
10761;SDS011;5433;50.862;4.320;2023-06-26T10:15:23;3.30;;;1.58;;
10761;SDS011;5433;50.862;4.320;2023-06-26T10:17:50;3.13;;;1.60;;
10761;SDS011;5433;50.862;4.320;2023-06-26T10:20:19;4.50;;;1.63;;
10761;SDS011;5433;50.862;4.320;2023-06-26T10:22:46;3.63;;;1.83;;
10761;SDS011;5433;50.862;4.320;2023-06-26T10:25:14;3.05;;;1.55;;
10761;SDS011;5433;50.862;4.320;2023-06-26T10:27:43;4.07;;;1.65;;
10761;SDS011;5433;50.862;4.320;2023-06-26T10:30:11;4.15;;;1.70;;
10761;SDS011;5433;50.862;4.320;2023-06-26T10:32:38;5.32;;;1.50;;
10761;SDS011;5433;50.862;4.320;2023-06-26T10:35:05;4.22;;;1.70;;
10761;SDS011;5433;50.862;4.320;2023-06-26T10:37:42;3.78;;;1.45;;
10761;SDS011;5433;50.862;4.320;2023-06-26T10:40:09;3.05;;;1.60;;
10761;SDS011;5433;50.862;4.320;2023-06-26T10:42:36;2.80;;;1.50;;
10761;SDS011;5433;50.862;4.320;2023-06-26T10:45:08;3.33;;;1.90;;
10761;SDS011;5433;50.862;4.320;2023-06-26T10:47:36;4.57;;;1.88;;
10761;SDS011;5433;50.862;4.320;2023-06-26T10:52:44;2.92;;;1.63;;
10761;SDS011;5433;50.862;4.320;2023-06-26T10:55:10;3.95;;;1.60;;
10761;SDS011;5433;50.862;4.320;2023-06-26T10:57:36;3.72;;;1.80;;
10761;SDS011;5433;50.862;4.320;2023-06-26T11:00:10;5.47;;;2.00;;
10761;SDS011;5433;50.862;4.320;2023-06-26T11:02:49;4.32;;;2.00;;
10761;SDS011;5433;50.862;4.320;2023-06-26T11:05:29;6.28;;;2.20;;
10761;SDS011;5433;50.862;4.320;2023-06-26T11:10:52;5.07;;;2.30;;
10761;SDS011;5433;50.862;4.320;2023-06-26T11:13:19;4.53;;;2.00;;
10761;SDS011;5433;50.862;4.320;2023-06-26T11:15:49;4.75;;;2.00;;
10761;SDS011;5433;50.862;4.320;2023-06-26T11:18:15;4.72;;;2.40;;
10761;SDS011;5433;50.862;4.320;2023-06-26T11:20:41;3.65;;;2.30;;
10761;SDS011;5433;50.862;4.320;2023-06-26T11:23:08;3.45;;;2.20;;
10761;SDS011;5433;50.862;4.320;2023-06-26T11:25:35;2.78;;;2.22;;
10761;SDS011;5433;50.862;4.320;2023-06-26T11:28:02;2.60;;;2.35;;
10761;SDS011;5433;50.862;4.320;2023-06-26T11:30:29;5.65;;;2.33;;
10761;SDS011;5433;50.862;4.320;2023-06-26T11:33:02;4.18;;;2.20;;
10761;SDS011;5433;50.862;4.320;2023-06-26T11:35:29;4.22;;;1.85;;
10761;SDS011;5433;50.862;4.320;2023-06-26T11:38:16;3.22;;;1.80;;
10761;SDS011;5433;50.862;4.320;2023-06-26T11:40:41;2.83;;;1.80;;
10761;SDS011;5433;50.862;4.320;2023-06-26T11:43:07;3.38;;;2.05;;
10761;SDS011;5433;50.862;4.320;2023-06-26T11:45:33;3.70;;;2.13;;
10761;SDS011;5433;50.862;4.320;2023-06-26T11:48:00;5.50;;;2.55;;
10761;SDS011;5433;50.862;4.320;2023-06-26T11:50:27;2.33;;;1.67;;
10761;SDS011;5433;50.862;4.320;2023-06-26T11:52:56;3.75;;;1.60;;
10761;SDS011;5433;50.862;4.320;2023-06-26T11:55:27;4.47;;;1.80;;
10761;SDS011;5433;50.862;4.320;2023-06-26T11:57:56;3.00;;;1.63;;
10761;SDS011;5433;50.862;4.320;2023-06-26T12:00:22;3.53;;;2.15;;
10761;SDS011;5433;50.862;4.320;2023-06-26T12:02:48;4.10;;;1.98;;
10761;SDS011;5433;50.862;4.320;2023-06-26T12:05:15;4.18;;;1.65;;
10761;SDS011;5433;50.862;4.320;2023-06-26T12:07:46;2.83;;;1.67;;
10761;SDS011;5433;50.862;4.320;2023-06-26T12:10:12;3.05;;;1.80;;
10761;SDS011;5433;50.862;4.320;2023-06-26T12:12:39;6.55;;;1.50;;
10761;SDS011;5433;50.862;4.320;2023-06-26T12:15:06;3.33;;;1.70;;
10761;SDS011;5433;50.862;4.320;2023-06-26T12:17:32;3.03;;;1.60;;
10761;SDS011;5433;50.862;4.320;2023-06-26T12:19:58;3.75;;;1.70;;
10761;SDS011;5433;50.862;4.320;2023-06-26T12:22:24;2.42;;;1.38;;
10761;SDS011;5433;50.862;4.320;2023-06-26T12:24:59;4.30;;;1.70;;
10761;SDS011;5433;50.862;4.320;2023-06-26T12:27:25;3.35;;;1.40;;
10761;SDS011;5433;50.862;4.320;2023-06-26T12:29:52;3.72;;;1.60;;
10761;SDS011;5433;50.862;4.320;2023-06-26T12:32:24;4.90;;;1.70;;
10761;SDS011;5433;50.862;4.320;2023-06-26T12:34:51;4.78;;;1.63;;
10761;SDS011;5433;50.862;4.320;2023-06-26T12:37:18;3.72;;;1.70;;
10761;SDS011;5433;50.862;4.320;2023-06-26T12:39:48;3.63;;;1.70;;
10761;SDS011;5433;50.862;4.320;2023-06-26T12:42:15;4.07;;;1.70;;
10761;SDS011;5433;50.862;4.320;2023-06-26T12:44:41;3.35;;;1.80;;
10761;SDS011;5433;50.862;4.320;2023-06-26T12:47:07;5.00;;;1.80;;
10761;SDS011;5433;50.862;4.320;2023-06-26T12:49:37;4.57;;;1.50;;
10761;SDS011;5433;50.862;4.320;2023-06-26T12:52:04;3.10;;;1.48;;
10761;SDS011;5433;50.862;4.320;2023-06-26T12:54:30;2.33;;;1.50;;
10761;SDS011;5433;50.862;4.320;2023-06-26T12:56:57;4.13;;;1.70;;
10761;SDS011;5433;50.862;4.320;2023-06-26T12:59:23;3.90;;;1.73;;
10761;SDS011;5433;50.862;4.320;2023-06-26T13:01:49;4.65;;;1.75;;
10761;SDS011;5433;50.862;4.320;2023-06-26T13:04:15;5.07;;;1.67;;
10761;SDS011;5433;50.862;4.320;2023-06-26T13:06:41;4.25;;;1.80;;
10761;SDS011;5433;50.862;4.320;2023-06-26T13:09:07;3.33;;;1.77;;
10761;SDS011;5433;50.862;4.320;2023-06-26T13:11:33;3.55;;;1.67;;
10761;SDS011;5433;50.862;4.320;2023-06-26T13:14:01;4.90;;;1.55;;
10761;SDS011;5433;50.862;4.320;2023-06-26T13:16:27;2.90;;;1.67;;
10761;SDS011;5433;50.862;4.320;2023-06-26T13:19:01;3.25;;;1.50;;
10761;SDS011;5433;50.862;4.320;2023-06-26T13:21:27;3.90;;;2.03;;
10761;SDS011;5433;50.862;4.320;2023-06-26T13:23:53;5.78;;;1.80;;
10761;SDS011;5433;50.862;4.320;2023-06-26T13:26:20;3.00;;;1.90;;
10761;SDS011;5433;50.862;4.320;2023-06-26T13:28:47;3.72;;;1.85;;
10761;SDS011;5433;50.862;4.320;2023-06-26T13:31:13;4.50;;;1.85;;
10761;SDS011;5433;50.862;4.320;2023-06-26T13:33:39;3.72;;;1.55;;
10761;SDS011;5433;50.862;4.320;2023-06-26T13:36:05;4.65;;;2.10;;
10761;SDS011;5433;50.862;4.320;2023-06-26T13:38:34;6.13;;;1.98;;
10761;SDS011;5433;50.862;4.320;2023-06-26T13:41:00;4.15;;;1.85;;
10761;SDS011;5433;50.862;4.320;2023-06-26T13:43:27;5.80;;;1.88;;
10761;SDS011;5433;50.862;4.320;2023-06-26T13:45:53;5.72;;;1.58;;
10761;SDS011;5433;50.862;4.320;2023-06-26T13:48:19;2.85;;;1.60;;
10761;SDS011;5433;50.862;4.320;2023-06-26T13:50:46;4.97;;;1.60;;
10761;SDS011;5433;50.862;4.320;2023-06-26T13:53:12;5.50;;;1.60;;
10761;SDS011;5433;50.862;4.320;2023-06-26T13:55:38;3.90;;;1.60;;
10761;SDS011;5433;50.862;4.320;2023-06-26T13:58:04;2.88;;;1.52;;
10761;SDS011;5433;50.862;4.320;2023-06-26T14:00:31;3.38;;;1.52;;
10761;SDS011;5433;50.862;4.320;2023-06-26T14:02:58;2.33;;;1.10;;
10761;SDS011;5433;50.862;4.320;2023-06-26T14:05:24;3.67;;;1.50;;
10761;SDS011;5433;50.862;4.320;2023-06-26T14:07:50;4.55;;;1.55;;
10761;SDS011;5433;50.862;4.320;2023-06-26T14:10:16;2.22;;;1.63;;
10761;SDS011;5433;50.862;4.320;2023-06-26T14:12:42;4.32;;;1.60;;
10761;SDS011;5433;50.862;4.320;2023-06-26T14:15:08;3.97;;;1.60;;
10761;SDS011;5433;50.862;4.320;2023-06-26T14:17:35;3.28;;;1.77;;
10761;SDS011;5433;50.862;4.320;2023-06-26T14:20:05;3.95;;;1.60;;
10761;SDS011;5433;50.862;4.320;2023-06-26T14:22:31;4.18;;;1.70;;
10761;SDS011;5433;50.862;4.320;2023-06-26T14:24:58;3.28;;;1.52;;
10761;SDS011;5433;50.862;4.320;2023-06-26T14:27:23;4.93;;;1.65;;
10761;SDS011;5433;50.862;4.320;2023-06-26T14:29:49;2.65;;;1.55;;
10761;SDS011;5433;50.862;4.320;2023-06-26T14:32:15;2.85;;;1.60;;
10761;SDS011;5433;50.862;4.320;2023-06-26T14:34:41;3.80;;;1.70;;
10761;SDS011;5433;50.862;4.320;2023-06-26T14:37:07;4.80;;;1.50;;
10761;SDS011;5433;50.862;4.320;2023-06-26T14:39:33;2.65;;;1.40;;
10761;SDS011;5433;50.862;4.320;2023-06-26T14:41:59;3.33;;;1.63;;
10761;SDS011;5433;50.862;4.320;2023-06-26T14:44:25;2.95;;;1.55;;
10761;SDS011;5433;50.862;4.320;2023-06-26T14:46:51;4.00;;;1.70;;
10761;SDS011;5433;50.862;4.320;2023-06-26T14:49:20;4.38;;;1.60;;
10761;SDS011;5433;50.862;4.320;2023-06-26T14:51:46;3.75;;;1.60;;
10761;SDS011;5433;50.862;4.320;2023-06-26T14:54:14;2.17;;;1.38;;
10761;SDS011;5433;50.862;4.320;2023-06-26T14:56:40;3.00;;;1.50;;
10761;SDS011;5433;50.862;4.320;2023-06-26T14:59:09;4.65;;;1.58;;
10761;SDS011;5433;50.862;4.320;2023-06-26T15:01:35;5.03;;;1.73;;
10761;SDS011;5433;50.862;4.320;2023-06-26T15:04:01;3.97;;;1.65;;
10761;SDS011;5433;50.862;4.320;2023-06-26T15:06:27;4.10;;;1.77;;
10761;SDS011;5433;50.862;4.320;2023-06-26T15:08:53;4.65;;;1.70;;
10761;SDS011;5433;50.862;4.320;2023-06-26T15:11:19;4.28;;;1.80;;
10761;SDS011;5433;50.862;4.320;2023-06-26T15:13:45;2.97;;;1.60;;
10761;SDS011;5433;50.862;4.320;2023-06-26T15:16:11;2.75;;;1.58;;
10761;SDS011;5433;50.862;4.320;2023-06-26T15:18:37;8.57;;;2.10;;